| time (UTC) | temp C | wind direction | speed KPH | gust KPH | rain 1hr cm | rain 24hr cm | rain mn cm | humidity % | barometer mb |
| 20260906043105 | 19 | 201 | 0.0 | 6.4 | 0.00 | 0.05 | 0.00 | 95 | 1016.6 |
| 20260906041551 | 19 | 97 | 4.8 | 11.3 | 0.00 | 0.05 | 0.00 | 95 | 1016.4 |
| 20260906040048 | 19 | 0 | 0.0 | 6.4 | 0.00 | 0.05 | 0.00 | 95 | 1016.6 |
| 20260906034544 | 19 | 22 | 3.2 | 4.8 | 0.00 | 0.05 | 0.05 | 94 | 1016.9 |
| 20260906033041 | 19 | 0 | 0.0 | 0.0 | 0.00 | 0.05 | 0.05 | 94 | 1017.3 |
| 20260906031549 | 20 | 0 | 0.0 | 0.0 | 0.00 | 0.05 | 0.05 | 94 | 1017.4 |
| 20260906030047 | 20 | 0 | 0.0 | 0.0 | 0.00 | 0.05 | 0.05 | 93 | 1017.2 |
| 20260906024542 | 20 | 0 | 0.0 | 0.0 | 0.00 | 0.05 | 0.05 | 92 | 1017.0 |
| 20260906023044 | 20 | 0 | 0.0 | 0.0 | 0.00 | 0.05 | 0.05 | 91 | 1016.7 |
| 20260906021608 | 21 | 0 | 0.0 | 0.0 | 0.00 | 0.05 | 0.05 | 91 | 1016.6 |
| 20260906020048 | 21 | 0 | 0.0 | 0.0 | 0.00 | 0.05 | 0.05 | 91 | 1016.7 |
| 20260906014543 | 21 | 0 | 0.0 | 0.0 | 0.00 | 0.05 | 0.05 | 90 | 1016.5 |
| 20260906013045 | 21 | 0 | 0.0 | 0.0 | 0.00 | 0.05 | 0.05 | 90 | 1016.6 |
| 20260906011545 | 21 | 0 | 0.0 | 0.0 | 0.00 | 0.05 | 0.05 | 90 | 1016.2 |
| 20260906010044 | 21 | 0 | 0.0 | 4.8 | 0.00 | 0.05 | 0.05 | 90 | 1016.0 |
| 20260906004549 | 21 | 64 | 4.8 | 6.4 | 0.00 | 0.05 | 0.05 | 89 | 1016.1 |
| 20260906003055 | 22 | 44 | 3.2 | 6.4 | 0.00 | 0.05 | 0.05 | 87 | 1015.8 |
| 20260906001546 | 23 | 42 | 1.6 | 8.0 | 0.00 | 0.05 | 0.05 | 85 | 1015.6 |
| 20260906000043 | 23 | 0 | 0.0 | 0.0 | 0.00 | 0.05 | 0.05 | 82 | 1015.4 |
| 20260905234555 | 25 | 0 | 0.0 | 6.4 | 0.00 | 0.05 | 0.05 | 78 | 1015.4 |
| 20260905233043 | 25 | 82 | 3.2 | 11.3 | 0.00 | 0.05 | 0.05 | 74 | 1015.3 |
| 20260905231543 | 26 | 58 | 3.2 | 12.9 | 0.00 | 0.05 | 0.05 | 73 | 1015.2 |
| 20260905230052 | 26 | 88 | 9.7 | 17.7 | 0.00 | 0.05 | 0.05 | 72 | 1015.0 |
| 20260905224544 | 26 | 59 | 11.3 | 25.7 | 0.00 | 0.05 | 0.05 | 70 | 1014.8 |
| 20260905223051 | 27 | 122 | 4.8 | 19.3 | 0.00 | 0.05 | 0.05 | 69 | 1015.0 |
| 20260905221544 | 27 | 75 | 6.4 | 16.1 | 0.00 | 0.05 | 0.05 | 67 | 1015.0 |
| 20260905220044 | 27 | 63 | 6.4 | 17.7 | 0.00 | 0.05 | 0.05 | 67 | 1015.0 |
| 20260905214559 | 27 | 63 | 11.3 | 19.3 | 0.00 | 0.05 | 0.05 | 70 | 1015.0 |
| 20260905213045 | 27 | 61 | 3.2 | 14.5 | 0.00 | 0.05 | 0.05 | 70 | 1015.0 |
| 20260905211544 | 27 | 349 | 1.6 | 11.3 | 0.00 | 0.05 | 0.05 | 70 | 1015.3 |
| 20260905210050 | 27 | 352 | 3.2 | 14.5 | 0.00 | 0.05 | 0.05 | 69 | 1015.2 |
| 20260905204544 | 27 | 5 | 3.2 | 12.9 | 0.00 | 0.05 | 0.05 | 69 | 1015.3 |
| 20260905203054 | 26 | 84 | 3.2 | 9.7 | 0.00 | 0.05 | 0.05 | 71 | 1015.7 |
| 20260905201543 | 26 | 81 | 1.6 | 12.9 | 0.00 | 0.05 | 0.05 | 73 | 1015.9 |
| 20260905200056 | 25 | 0 | 3.2 | 12.9 | 0.00 | 0.05 | 0.05 | 75 | 1015.9 |
| 20260905194552 | 23 | 0 | 0.0 | 9.7 | 0.00 | 0.05 | 0.05 | 79 | 1016.0 |
| 20260905193044 | 23 | 360 | 3.2 | 16.1 | 0.00 | 0.05 | 0.05 | 81 | 1016.0 |
| 20260905191551 | 22 | 81 | 6.4 | 14.5 | 0.00 | 0.05 | 0.05 | 83 | 1016.2 |
| 20260905190053 | 22 | 70 | 11.3 | 25.7 | 0.00 | 0.05 | 0.05 | 84 | 1016.4 |
| 20260905184604 | 22 | 49 | 8.0 | 16.1 | 0.03 | 0.05 | 0.05 | 83 | 1016.6 |
| 20260905183044 | 21 | 40 | 4.8 | 19.3 | 0.05 | 0.05 | 0.05 | 86 | 1016.5 |
| 20260905181550 | 22 | 36 | 8.0 | 20.9 | 0.05 | 0.05 | 0.05 | 88 | 1016.2 |
| 20260905180051 | 22 | 49 | 6.4 | 12.9 | 0.05 | 0.05 | 0.05 | 86 | 1016.9 |
| 20260905174550 | 25 | 25 | 3.2 | 25.7 | 0.03 | 0.03 | 0.03 | 76 | 1018.1 |
| 20260905173055 | 27 | 360 | 6.4 | 19.3 | 0.00 | 0.00 | 0.00 | 66 | 1018.2 |
| 20260905171546 | 28 | 91 | 6.4 | 17.7 | 0.00 | 0.00 | 0.00 | 65 | 1018.2 |
| 20260905170043 | 30 | 11 | 6.4 | 20.9 | 0.00 | 0.00 | 0.00 | 61 | 1017.9 |
| 20260905164543 | 30 | 45 | 11.3 | 20.9 | 0.00 | 0.00 | 0.00 | 61 | 1017.9 |
| 20260905163052 | 29 | 360 | 8.0 | 17.7 | 0.00 | 0.00 | 0.00 | 67 | 1017.7 |
| 20260905161544 | 28 | 304 | 0.0 | 8.0 | 0.00 | 0.00 | 0.00 | 70 | 1017.8 |
| 20260905160052 | 28 | 49 | 4.8 | 16.1 | 0.00 | 0.00 | 0.00 | 72 | 1018.3 |
| 20260905154549 | 28 | 65 | 6.4 | 19.3 | 0.00 | 0.00 | 0.00 | 71 | 1018.3 |
| 20260905153055 | 28 | 62 | 11.3 | 24.1 | 0.00 | 0.00 | 0.00 | 71 | 1018.1 |
| 20260905151551 | 27 | 22 | 9.7 | 22.5 | 0.00 | 0.00 | 0.00 | 72 | 1017.8 |
| 20260905150051 | 27 | 87 | 6.4 | 20.9 | 0.00 | 0.00 | 0.00 | 73 | 1017.8 |
| 20260905144551 | 27 | 22 | 6.4 | 17.7 | 0.00 | 0.00 | 0.00 | 73 | 1017.9 |
| 20260905143053 | 27 | 62 | 6.4 | 12.9 | 0.00 | 0.00 | 0.00 | 73 | 1017.9 |
| 20260905141607 | 26 | 340 | 3.2 | 11.3 | 0.00 | 0.00 | 0.00 | 77 | 1017.8 |
| 20260905140103 | 26 | 17 | 9.7 | 20.9 | 0.00 | 0.00 | 0.00 | 78 | 1017.8 |
| 20260905134554 | 25 | 10 | 6.4 | 16.1 | 0.00 | 0.00 | 0.00 | 81 | 1018.0 |
| 20260905133056 | 23 | 13 | 6.4 | 14.5 | 0.00 | 0.00 | 0.00 | 87 | 1018.1 |
| 20260905131554 | 23 | 16 | 4.8 | 12.9 | 0.00 | 0.00 | 0.00 | 88 | 1018.1 |
| 20260905130042 | 22 | 61 | 6.4 | 14.5 | 0.00 | 0.00 | 0.00 | 89 | 1018.5 |
| 20260905124542 | 22 | 20 | 8.0 | 16.1 | 0.00 | 0.00 | 0.00 | 90 | 1018.5 |
| 20260905123055 | 22 | 22 | 11.3 | 16.1 | 0.00 | 0.00 | 0.00 | 90 | 1018.5 |
| 20260905121544 | 21 | 18 | 11.3 | 17.7 | 0.00 | 0.00 | 0.00 | 92 | 1018.3 |
| 20260905120043 | 21 | 18 | 4.8 | 12.9 | 0.00 | 0.00 | 0.00 | 95 | 1018.0 |
| 20260905114623 | 20 | 15 | 6.4 | 11.3 | 0.00 | 0.00 | 0.00 | 95 | 1018.0 |
| 20260905113044 | 20 | 36 | 4.8 | 12.9 | 0.00 | 0.00 | 0.00 | 96 | 1017.8 |
| 20260905111554 | 20 | 46 | 6.4 | 11.3 | 0.00 | 0.00 | 0.00 | 97 | 1017.6 |
| 20260905110052 | 19 | 51 | 6.4 | 14.5 | 0.00 | 0.00 | 0.00 | 97 | 1017.3 |
| 20260905104548 | 19 | 34 | 6.4 | 12.9 | 0.00 | 0.00 | 0.00 | 97 | 1017.3 |
| 20260905103045 | 19 | 37 | 4.8 | 14.5 | 0.00 | 0.00 | 0.00 | 97 | 1017.4 |
| 20260905101543 | 19 | 56 | 8.0 | 16.1 | 0.00 | 0.00 | 0.00 | 97 | 1017.3 |
| 20260905100057 | 20 | 46 | 4.8 | 14.5 | 0.00 | 0.00 | 0.00 | 96 | 1017.1 |
| 20260905094603 | 20 | 43 | 6.4 | 16.1 | 0.00 | 0.00 | 0.00 | 96 | 1017.2 |
| 20260905093044 | 20 | 33 | 4.8 | 12.9 | 0.00 | 0.00 | 0.00 | 95 | 1017.2 |
| 20260905091555 | 20 | 27 | 6.4 | 12.9 | 0.00 | 0.00 | 0.00 | 97 | 1017.1 |
| 20260905090047 | 20 | 40 | 1.6 | 12.9 | 0.00 | 0.00 | 0.00 | 96 | 1017.1 |
| 20260905084543 | 20 | 27 | 8.0 | 14.5 | 0.00 | 0.00 | 0.00 | 96 | 1017.3 |
| 20260905083042 | 20 | 28 | 3.2 | 9.7 | 0.00 | 0.00 | 0.00 | 96 | 1017.4 |
| 20260905081550 | 20 | 22 | 1.6 | 8.0 | 0.00 | 0.00 | 0.00 | 96 | 1017.6 |
| 20260905080048 | 20 | 22 | 3.2 | 12.9 | 0.00 | 0.00 | 0.00 | 96 | 1017.7 |
| 20260905074555 | 20 | 23 | 1.6 | 11.3 | 0.00 | 0.00 | 0.00 | 96 | 1017.9 |
| 20260905073059 | 20 | 16 | 3.2 | 8.0 | 0.00 | 0.00 | 0.00 | 96 | 1018.0 |
| 20260905071541 | 20 | 0 | 1.6 | 11.3 | 0.00 | 0.00 | 0.00 | 96 | 1018.1 |
| 20260905070051 | 20 | 16 | 1.6 | 8.0 | 0.00 | 0.00 | 0.00 | 96 | 1018.3 |
| 20260905063059 | 20 | 0 | 0.0 | 0.0 | 0.00 | 0.00 | 0.00 | 96 | 1018.5 |
| 20260905061613 | 20 | 0 | 0.0 | 0.0 | 0.00 | 0.00 | 0.00 | 96 | 1018.9 |
| 20260905060053 | 20 | 0 | 0.0 | 0.0 | 0.00 | 0.00 | 0.00 | 96 | 1019.1 |
| 20260905054548 | 21 | 0 | 0.0 | 0.0 | 0.00 | 0.00 | 0.00 | 96 | 1019.3 |
| 20260905053046 | 21 | 0 | 0.0 | 0.0 | 0.00 | 0.00 | 0.00 | 96 | 1019.5 |
| 20260905051554 | 21 | 0 | 0.0 | 0.0 | 0.00 | 0.00 | 0.00 | 96 | 1019.5 |
| 20260905050044 | 21 | 0 | 0.0 | 4.8 | 0.00 | 0.00 | 0.00 | 96 | 1019.3 |
| 20260905044555 | 21 | 11 | 1.6 | 4.8 | 0.00 | 0.00 | 0.00 | 96 | 1019.4 |